Pedhoulas Trader — C4JM2 — position and weather

sailwx.info

Track history (hours):
 
Tides and Currents Weather Stations Pressure Air Temp Water Temp Dewpoint Dewpoint Depression Visibility Wind Speed Wind Dir Waves Ship Positions

Pedhoulas Trader

Last reported at 2015-Mar-05 06:30 UTC. Time now 2015-Mar-06 07:34 UTC.
Position S 32°36' E 153°04'.

Length 229 m; draft 7.1 m.

Type: Ship. MMSI: 210073000.

Date/timePositionNaut miles runAvg speedWind from/ knotsBaromVisibWave heightAir tempDewpointWater temp
2015-Mar-05 06:30S 32°36' E 153°04'9 8.6
2015-Mar-05 05:28S 32°32' E 152°54'6 6.9
2015-Mar-05 04:33S 32°32' E 152°47'3 3.4
2015-Mar-05 03:33S 32°35' E 152°50'3 3.0
2015-Mar-05 02:31S 32°38' E 152°51'3 2.7
2015-Mar-05 01:31S 32°40' E 152°52'3 2.8
2015-Mar-05 00:33S 32°43' E 152°53'3 2.8
2015-Mar-04 23:33S 32°46' E 152°54'3 3.0
2015-Mar-04 22:33S 32°49' E 152°55'1312.9
2015-Mar-04 21:33S 32°59' E 152°46'18 8.0
2015-Mar-04 19:21S 33°17' E 152°46'  
2015-Mar-01 20:17S 32°41' E 153°11'2 0.2
2015-Mar-01 10:15S 32°40' E 153°09'1 0.8
2015-Mar-01 09:33S 32°40' E 153°10'6 6.0
2015-Mar-01 08:32S 32°44' E 153°15'31 1.2
2015-Feb-28 05:33S 33°01' E 152°44'10 4.7
2015-Feb-28 03:31S 33°04' E 152°33'3 1.3
2015-Feb-28 01:04S 33°01' E 152°35'1 1.2
2015-Feb-28 00:10S 33°01' E 152°36'1 1.2
2015-Feb-27 23:28S 33°00' E 152°37'1 1.1
2015-Feb-27 22:28S 32°59' E 152°38'1 1.0
2015-Feb-27 21:28S 32°59' E 152°39'1 0.9
2015-Feb-27 20:31S 32°58' E 152°40'1 1.0
2015-Feb-27 19:31S 32°57' E 152°41'1 0.9
2015-Feb-27 18:31S 32°57' E 152°41'1 0.9
2015-Feb-27 17:31S 32°56' E 152°42'1 0.8
2015-Feb-27 16:31S 32°56' E 152°43'1 0.8
2015-Feb-27 15:31S 32°55' E 152°44'1 0.8
2015-Feb-27 14:31S 32°54' E 152°44'1 0.7
2015-Feb-27 13:04S 32°54' E 152°45'1 0.9
2015-Feb-27 12:22S 32°53' E 152°46'1 1.0
2015-Feb-27 11:19S 32°53' E 152°47'4 1.1
2015-Feb-27 07:31S 32°50' E 152°50'1 1.4
2015-Feb-27 06:31S 32°49' E 152°52'6 0.3
2015-Feb-26 07:34S 32°43' E 152°53'1110.9
2015-Feb-26 06:33S 32°41' E 152°40'7 6.9
2015-Feb-26 05:33S 32°40' E 152°32'1 1.1
2015-Feb-26 04:33S 32°40' E 152°33'1 1.1
2015-Feb-26 03:33S 32°40' E 152°34'1 1.1
2015-Feb-26 02:33S 32°40' E 152°36'1 0.8
2015-Feb-26 01:33S 32°40' E 152°37'1 0.7
2015-Feb-26 00:33S 32°40' E 152°38'1 0.6
2015-Feb-25 23:33S 32°40' E 152°38'1 0.8
2015-Feb-25 22:33S 32°40' E 152°39'1 0.8
2015-Feb-25 21:33S 32°41' E 152°40'1 0.6
2015-Feb-25 20:30S 32°41' E 152°41'1 0.8
2015-Feb-25 19:33S 32°41' E 152°41'1 1.0
2015-Feb-25 18:33S 32°42' E 152°43'1 1.0
2015-Feb-25 17:33S 32°42' E 152°44'1 1.2
2015-Feb-25 16:33S 32°42' E 152°45'1 1.3
2015-Feb-25 15:33S 32°43' E 152°46'1 1.4
2015-Feb-25 14:33S 32°43' E 152°48'1 1.4
2015-Feb-25 13:33S 32°44' E 152°50'2 1.6
2015-Feb-25 12:33S 32°44' E 152°51'1 0.9
2015-Feb-25 11:33S 32°45' E 152°53'8 8.0
2015-Feb-25 10:33S 32°37' E 152°52'28013.3
2015-Feb-24 13:33S 28°02' E 153°56'1312.9
2015-Feb-24 12:33S 27°49' E 153°56'1212.1
2015-Feb-24 11:34S 27°37' E 153°56'1611.9
2015-Feb-24 10:14S 27°21' E 153°57'812.0
2015-Feb-24 09:33S 27°13' E 153°57'1212.1
2015-Feb-24 08:33S 27°01' E 153°57'1311.7
2015-Feb-24 07:23S 26°48' E 153°58'3711.9
2015-Feb-24 04:18S 26°11' E 153°59'  
Track history (hours):
 
Tides and Currents Weather Stations Pressure Air Temp Water Temp Dewpoint Dewpoint Depression Visibility Wind Speed Wind Dir Waves Ship Positions

Pedhoulas Trader

Last reported at 2015-Mar-05 06:30 UTC. Time now 2015-Mar-06 07:34 UTC.
Position S 32°36' E 153°04'.

Length 229 m; draft 7.1 m.

Type: Ship. MMSI: 210073000.

Date/timePositionNaut miles runAvg speedWind from/ knotsBaromVisibWave heightAir tempDewpointWater temp
2015-Mar-05 06:30S 32°36' E 153°04'9 8.6
2015-Mar-05 05:28S 32°32' E 152°54'6 6.9
2015-Mar-05 04:33S 32°32' E 152°47'3 3.4
2015-Mar-05 03:33S 32°35' E 152°50'3 3.0
2015-Mar-05 02:31S 32°38' E 152°51'3 2.7
2015-Mar-05 01:31S 32°40' E 152°52'3 2.8
2015-Mar-05 00:33S 32°43' E 152°53'3 2.8
2015-Mar-04 23:33S 32°46' E 152°54'3 3.0
2015-Mar-04 22:33S 32°49' E 152°55'1312.9
2015-Mar-04 21:33S 32°59' E 152°46'18 8.0
2015-Mar-04 19:21S 33°17' E 152°46'  
2015-Mar-01 20:17S 32°41' E 153°11'2 0.2
2015-Mar-01 10:15S 32°40' E 153°09'1 0.8
2015-Mar-01 09:33S 32°40' E 153°10'6 6.0
2015-Mar-01 08:32S 32°44' E 153°15'31 1.2
2015-Feb-28 05:33S 33°01' E 152°44'10 4.7
2015-Feb-28 03:31S 33°04' E 152°33'3 1.3
2015-Feb-28 01:04S 33°01' E 152°35'1 1.2
2015-Feb-28 00:10S 33°01' E 152°36'1 1.2
2015-Feb-27 23:28S 33°00' E 152°37'1 1.1
2015-Feb-27 22:28S 32°59' E 152°38'1 1.0
2015-Feb-27 21:28S 32°59' E 152°39'1 0.9
2015-Feb-27 20:31S 32°58' E 152°40'1 1.0
2015-Feb-27 19:31S 32°57' E 152°41'1 0.9
2015-Feb-27 18:31S 32°57' E 152°41'1 0.9
2015-Feb-27 17:31S 32°56' E 152°42'1 0.8
2015-Feb-27 16:31S 32°56' E 152°43'1 0.8
2015-Feb-27 15:31S 32°55' E 152°44'1 0.8
2015-Feb-27 14:31S 32°54' E 152°44'1 0.7
2015-Feb-27 13:04S 32°54' E 152°45'1 0.9
2015-Feb-27 12:22S 32°53' E 152°46'1 1.0
2015-Feb-27 11:19S 32°53' E 152°47'4 1.1
2015-Feb-27 07:31S 32°50' E 152°50'1 1.4
2015-Feb-27 06:31S 32°49' E 152°52'6 0.3
2015-Feb-26 07:34S 32°43' E 152°53'1110.9
2015-Feb-26 06:33S 32°41' E 152°40'7 6.9
2015-Feb-26 05:33S 32°40' E 152°32'1 1.1
2015-Feb-26 04:33S 32°40' E 152°33'1 1.1
2015-Feb-26 03:33S 32°40' E 152°34'1 1.1
2015-Feb-26 02:33S 32°40' E 152°36'1 0.8
2015-Feb-26 01:33S 32°40' E 152°37'1 0.7
2015-Feb-26 00:33S 32°40' E 152°38'1 0.6
2015-Feb-25 23:33S 32°40' E 152°38'1 0.8
2015-Feb-25 22:33S 32°40' E 152°39'1 0.8
2015-Feb-25 21:33S 32°41' E 152°40'1 0.6
2015-Feb-25 20:30S 32°41' E 152°41'1 0.8
2015-Feb-25 19:33S 32°41' E 152°41'1 1.0
2015-Feb-25 18:33S 32°42' E 152°43'1 1.0
2015-Feb-25 17:33S 32°42' E 152°44'1 1.2
2015-Feb-25 16:33S 32°42' E 152°45'1 1.3
2015-Feb-25 15:33S 32°43' E 152°46'1 1.4
2015-Feb-25 14:33S 32°43' E 152°48'1 1.4
2015-Feb-25 13:33S 32°44' E 152°50'2 1.6
2015-Feb-25 12:33S 32°44' E 152°51'1 0.9
2015-Feb-25 11:33S 32°45' E 152°53'8 8.0
2015-Feb-25 10:33S 32°37' E 152°52'28013.3
2015-Feb-24 13:33S 28°02' E 153°56'1312.9
2015-Feb-24 12:33S 27°49' E 153°56'1212.1
2015-Feb-24 11:34S 27°37' E 153°56'1611.9
2015-Feb-24 10:14S 27°21' E 153°57'812.0
2015-Feb-24 09:33S 27°13' E 153°57'1212.1
2015-Feb-24 08:33S 27°01' E 153°57'1311.7
2015-Feb-24 07:23S 26°48' E 153°58'3711.9
2015-Feb-24 04:18S 26°11' E 153°59'  

Dump ship's entire track history